sensor_id;sensor_type;location;lat;lon;timestamp;P1;durP1;ratioP1;P2;durP2;ratioP2
16401;SDS011;8310;44.626;11.176;2023-03-01T00:01:15;17.27;;;13.82;;
16401;SDS011;8310;44.626;11.176;2023-03-01T00:03:43;18.77;;;14.07;;
16401;SDS011;8310;44.626;11.176;2023-03-01T00:06:11;18.90;;;14.00;;
16401;SDS011;8310;44.626;11.176;2023-03-01T00:08:39;17.27;;;13.90;;
16401;SDS011;8310;44.626;11.176;2023-03-01T00:11:08;18.48;;;14.02;;
16401;SDS011;8310;44.626;11.176;2023-03-01T00:13:40;16.27;;;13.80;;
16401;SDS011;8310;44.626;11.176;2023-03-01T00:16:09;18.50;;;14.93;;
16401;SDS011;8310;44.626;11.176;2023-03-01T00:18:38;19.92;;;14.30;;
16401;SDS011;8310;44.626;11.176;2023-03-01T00:21:05;20.38;;;13.95;;
16401;SDS011;8310;44.626;11.176;2023-03-01T00:23:33;17.58;;;12.88;;
16401;SDS011;8310;44.626;11.176;2023-03-01T00:26:02;17.70;;;14.15;;
16401;SDS011;8310;44.626;11.176;2023-03-01T00:28:34;17.10;;;14.18;;
16401;SDS011;8310;44.626;11.176;2023-03-01T00:31:04;17.27;;;13.35;;
16401;SDS011;8310;44.626;11.176;2023-03-01T00:33:32;16.95;;;14.30;;
16401;SDS011;8310;44.626;11.176;2023-03-01T00:36:00;17.92;;;14.13;;
16401;SDS011;8310;44.626;11.176;2023-03-01T00:38:29;18.50;;;14.68;;
16401;SDS011;8310;44.626;11.176;2023-03-01T00:41:02;19.00;;;15.00;;
16401;SDS011;8310;44.626;11.176;2023-03-01T00:43:30;21.63;;;15.13;;
16401;SDS011;8310;44.626;11.176;2023-03-01T00:46:01;17.35;;;13.35;;
16401;SDS011;8310;44.626;11.176;2023-03-01T00:48:31;19.13;;;14.73;;
16401;SDS011;8310;44.626;11.176;2023-03-01T00:51:03;18.77;;;13.45;;
16401;SDS011;8310;44.626;11.176;2023-03-01T00:53:32;18.02;;;14.30;;
16401;SDS011;8310;44.626;11.176;2023-03-01T00:56:00;17.75;;;14.60;;
16401;SDS011;8310;44.626;11.176;2023-03-01T00:58:28;19.02;;;14.13;;
16401;SDS011;8310;44.626;11.176;2023-03-01T01:00:56;16.83;;;14.20;;
16401;SDS011;8310;44.626;11.176;2023-03-01T01:03:25;17.42;;;14.60;;
16401;SDS011;8310;44.626;11.176;2023-03-01T01:05:54;20.10;;;14.90;;
16401;SDS011;8310;44.626;11.176;2023-03-01T01:08:21;17.67;;;15.07;;
16401;SDS011;8310;44.626;11.176;2023-03-01T01:10:49;16.77;;;13.82;;
16401;SDS011;8310;44.626;11.176;2023-03-01T01:13:16;18.63;;;14.65;;
16401;SDS011;8310;44.626;11.176;2023-03-01T01:15:45;22.17;;;14.85;;
16401;SDS011;8310;44.626;11.176;2023-03-01T01:18:12;18.95;;;14.32;;
16401;SDS011;8310;44.626;11.176;2023-03-01T01:20:41;16.83;;;13.70;;
16401;SDS011;8310;44.626;11.176;2023-03-01T01:23:09;18.23;;;14.18;;
16401;SDS011;8310;44.626;11.176;2023-03-01T01:25:37;16.80;;;13.95;;
16401;SDS011;8310;44.626;11.176;2023-03-01T01:28:04;19.67;;;14.55;;
16401;SDS011;8310;44.626;11.176;2023-03-01T01:30:32;18.63;;;13.77;;
16401;SDS011;8310;44.626;11.176;2023-03-01T01:33:00;18.13;;;14.05;;
16401;SDS011;8310;44.626;11.176;2023-03-01T01:35:27;18.63;;;12.90;;
16401;SDS011;8310;44.626;11.176;2023-03-01T01:37:57;16.52;;;13.07;;
16401;SDS011;8310;44.626;11.176;2023-03-01T01:40:24;19.75;;;13.73;;
16401;SDS011;8310;44.626;11.176;2023-03-01T01:42:52;18.23;;;14.23;;
16401;SDS011;8310;44.626;11.176;2023-03-01T01:45:30;20.27;;;14.80;;
16401;SDS011;8310;44.626;11.176;2023-03-01T01:48:01;19.48;;;14.18;;
16401;SDS011;8310;44.626;11.176;2023-03-01T01:50:31;19.80;;;14.05;;
16401;SDS011;8310;44.626;11.176;2023-03-01T01:53:05;16.00;;;12.95;;
16401;SDS011;8310;44.626;11.176;2023-03-01T01:55:36;15.88;;;13.77;;
16401;SDS011;8310;44.626;11.176;2023-03-01T01:58:08;18.38;;;13.82;;
16401;SDS011;8310;44.626;11.176;2023-03-01T02:00:38;17.98;;;13.77;;
16401;SDS011;8310;44.626;11.176;2023-03-01T02:03:07;18.25;;;14.48;;
16401;SDS011;8310;44.626;11.176;2023-03-01T02:05:38;18.55;;;14.98;;
16401;SDS011;8310;44.626;11.176;2023-03-01T02:08:13;18.98;;;14.98;;
16401;SDS011;8310;44.626;11.176;2023-03-01T02:10:42;19.77;;;14.48;;
16401;SDS011;8310;44.626;11.176;2023-03-01T02:13:11;18.38;;;15.18;;
16401;SDS011;8310;44.626;11.176;2023-03-01T02:15:40;17.05;;;14.02;;
16401;SDS011;8310;44.626;11.176;2023-03-01T02:18:09;18.05;;;14.70;;
16401;SDS011;8310;44.626;11.176;2023-03-01T02:20:41;17.65;;;13.23;;
16401;SDS011;8310;44.626;11.176;2023-03-01T02:23:17;17.98;;;13.82;;
16401;SDS011;8310;44.626;11.176;2023-03-01T02:25:49;18.95;;;14.73;;
16401;SDS011;8310;44.626;11.176;2023-03-01T02:28:27;21.33;;;14.95;;
16401;SDS011;8310;44.626;11.176;2023-03-01T02:30:57;17.05;;;13.73;;
16401;SDS011;8310;44.626;11.176;2023-03-01T02:33:42;18.33;;;14.77;;
16401;SDS011;8310;44.626;11.176;2023-03-01T02:36:14;21.02;;;14.77;;
16401;SDS011;8310;44.626;11.176;2023-03-01T03:11:06;20.38;;;14.95;;
16401;SDS011;8310;44.626;11.176;2023-03-01T03:13:33;19.98;;;15.23;;
16401;SDS011;8310;44.626;11.176;2023-03-01T03:16:03;19.50;;;15.13;;
16401;SDS011;8310;44.626;11.176;2023-03-01T03:18:30;21.38;;;15.57;;
16401;SDS011;8310;44.626;11.176;2023-03-01T03:20:58;19.83;;;15.02;;
16401;SDS011;8310;44.626;11.176;2023-03-01T03:23:26;19.73;;;15.80;;
16401;SDS011;8310;44.626;11.176;2023-03-01T03:25:54;19.67;;;15.00;;
16401;SDS011;8310;44.626;11.176;2023-03-01T03:28:21;26.23;;;16.17;;
16401;SDS011;8310;44.626;11.176;2023-03-01T03:30:49;20.77;;;15.35;;
16401;SDS011;8310;44.626;11.176;2023-03-01T03:33:18;19.90;;;15.80;;
16401;SDS011;8310;44.626;11.176;2023-03-01T03:35:47;21.45;;;16.17;;
16401;SDS011;8310;44.626;11.176;2023-03-01T03:38:16;21.77;;;16.75;;
16401;SDS011;8310;44.626;11.176;2023-03-01T03:40:47;21.10;;;17.25;;
16401;SDS011;8310;44.626;11.176;2023-03-01T03:43:18;21.63;;;16.33;;
16401;SDS011;8310;44.626;11.176;2023-03-01T03:45:48;21.33;;;16.00;;
16401;SDS011;8310;44.626;11.176;2023-03-01T03:48:19;20.90;;;15.73;;
16401;SDS011;8310;44.626;11.176;2023-03-01T03:50:47;21.80;;;16.33;;
16401;SDS011;8310;44.626;11.176;2023-03-01T03:53:16;20.50;;;15.75;;
16401;SDS011;8310;44.626;11.176;2023-03-01T03:55:45;21.15;;;16.17;;
16401;SDS011;8310;44.626;11.176;2023-03-01T03:58:14;21.30;;;15.45;;
16401;SDS011;8310;44.626;11.176;2023-03-01T04:00:45;20.15;;;15.32;;
16401;SDS011;8310;44.626;11.176;2023-03-01T04:03:14;20.67;;;16.23;;
16401;SDS011;8310;44.626;11.176;2023-03-01T04:05:45;19.15;;;15.70;;
16401;SDS011;8310;44.626;11.176;2023-03-01T04:08:14;21.83;;;16.15;;
16401;SDS011;8310;44.626;11.176;2023-03-01T04:10:45;21.45;;;17.02;;
16401;SDS011;8310;44.626;11.176;2023-03-01T04:13:14;20.05;;;16.02;;
16401;SDS011;8310;44.626;11.176;2023-03-01T04:15:44;18.38;;;15.35;;
16401;SDS011;8310;44.626;11.176;2023-03-01T04:18:12;20.02;;;15.55;;
16401;SDS011;8310;44.626;11.176;2023-03-01T04:20:41;20.27;;;15.32;;
16401;SDS011;8310;44.626;11.176;2023-03-01T04:23:12;21.92;;;16.55;;
16401;SDS011;8310;44.626;11.176;2023-03-01T04:25:45;20.08;;;15.40;;
16401;SDS011;8310;44.626;11.176;2023-03-01T04:28:18;22.55;;;15.40;;
16401;SDS011;8310;44.626;11.176;2023-03-01T04:30:46;18.55;;;14.57;;
16401;SDS011;8310;44.626;11.176;2023-03-01T04:33:13;22.08;;;16.17;;
16401;SDS011;8310;44.626;11.176;2023-03-01T04:35:41;23.90;;;16.48;;
16401;SDS011;8310;44.626;11.176;2023-03-01T04:38:08;20.25;;;15.60;;
16401;SDS011;8310;44.626;11.176;2023-03-01T04:40:38;19.33;;;15.02;;
16401;SDS011;8310;44.626;11.176;2023-03-01T04:43:08;21.55;;;15.95;;
16401;SDS011;8310;44.626;11.176;2023-03-01T04:45:36;23.40;;;16.77;;
16401;SDS011;8310;44.626;11.176;2023-03-01T04:48:04;23.73;;;16.60;;
16401;SDS011;8310;44.626;11.176;2023-03-01T04:50:32;20.42;;;16.13;;
16401;SDS011;8310;44.626;11.176;2023-03-01T04:53:01;22.20;;;16.92;;
16401;SDS011;8310;44.626;11.176;2023-03-01T04:55:29;22.13;;;16.60;;
16401;SDS011;8310;44.626;11.176;2023-03-01T04:57:59;20.08;;;16.30;;
16401;SDS011;8310;44.626;11.176;2023-03-01T05:00:26;21.23;;;15.23;;
16401;SDS011;8310;44.626;11.176;2023-03-01T05:02:54;19.83;;;15.35;;
16401;SDS011;8310;44.626;11.176;2023-03-01T05:05:23;20.92;;;15.45;;
16401;SDS011;8310;44.626;11.176;2023-03-01T05:07:53;21.55;;;16.08;;
16401;SDS011;8310;44.626;11.176;2023-03-01T05:10:22;20.65;;;16.02;;
16401;SDS011;8310;44.626;11.176;2023-03-01T05:12:49;23.45;;;16.15;;
16401;SDS011;8310;44.626;11.176;2023-03-01T05:15:19;22.98;;;17.20;;
16401;SDS011;8310;44.626;11.176;2023-03-01T05:17:50;23.23;;;16.52;;
16401;SDS011;8310;44.626;11.176;2023-03-01T05:20:19;24.27;;;17.48;;
16401;SDS011;8310;44.626;11.176;2023-03-01T05:22:48;21.17;;;16.83;;
16401;SDS011;8310;44.626;11.176;2023-03-01T05:25:15;23.02;;;16.65;;
16401;SDS011;8310;44.626;11.176;2023-03-01T05:27:43;20.83;;;15.77;;
16401;SDS011;8310;44.626;11.176;2023-03-01T05:30:11;21.75;;;16.33;;
16401;SDS011;8310;44.626;11.176;2023-03-01T05:33:07;20.80;;;17.05;;
16401;SDS011;8310;44.626;11.176;2023-03-01T05:35:38;23.20;;;16.35;;
16401;SDS011;8310;44.626;11.176;2023-03-01T05:38:07;22.15;;;16.70;;
16401;SDS011;8310;44.626;11.176;2023-03-01T05:40:38;23.58;;;17.75;;
16401;SDS011;8310;44.626;11.176;2023-03-01T05:43:06;21.42;;;16.52;;
16401;SDS011;8310;44.626;11.176;2023-03-01T05:45:35;21.27;;;16.73;;
16401;SDS011;8310;44.626;11.176;2023-03-01T05:48:03;20.65;;;16.60;;
16401;SDS011;8310;44.626;11.176;2023-03-01T05:50:34;19.45;;;16.55;;
16401;SDS011;8310;44.626;11.176;2023-03-01T05:53:04;21.17;;;17.88;;
16401;SDS011;8310;44.626;11.176;2023-03-01T05:55:33;18.77;;;15.77;;
16401;SDS011;8310;44.626;11.176;2023-03-01T05:58:02;20.60;;;16.83;;
16401;SDS011;8310;44.626;11.176;2023-03-01T06:00:31;21.48;;;16.88;;
16401;SDS011;8310;44.626;11.176;2023-03-01T06:02:59;23.00;;;17.70;;
16401;SDS011;8310;44.626;11.176;2023-03-01T06:05:28;23.75;;;16.30;;
16401;SDS011;8310;44.626;11.176;2023-03-01T06:07:59;21.77;;;15.85;;
16401;SDS011;8310;44.626;11.176;2023-03-01T06:10:28;19.35;;;14.15;;
16401;SDS011;8310;44.626;11.176;2023-03-01T06:12:55;20.38;;;14.75;;
16401;SDS011;8310;44.626;11.176;2023-03-01T06:15:23;20.00;;;14.48;;
16401;SDS011;8310;44.626;11.176;2023-03-01T06:17:55;19.13;;;14.93;;
16401;SDS011;8310;44.626;11.176;2023-03-01T06:20:24;20.30;;;15.02;;
16401;SDS011;8310;44.626;11.176;2023-03-01T06:22:53;22.08;;;15.27;;
16401;SDS011;8310;44.626;11.176;2023-03-01T06:25:23;21.98;;;14.73;;
16401;SDS011;8310;44.626;11.176;2023-03-01T06:27:52;21.17;;;15.00;;
16401;SDS011;8310;44.626;11.176;2023-03-01T06:30:21;19.05;;;13.60;;
16401;SDS011;8310;44.626;11.176;2023-03-01T06:32:50;19.77;;;14.52;;
16401;SDS011;8310;44.626;11.176;2023-03-01T06:35:18;18.20;;;14.82;;
16401;SDS011;8310;44.626;11.176;2023-03-01T06:37:45;20.85;;;14.68;;
16401;SDS011;8310;44.626;11.176;2023-03-01T06:40:14;18.30;;;14.82;;
16401;SDS011;8310;44.626;11.176;2023-03-01T06:42:47;17.80;;;14.38;;
16401;SDS011;8310;44.626;11.176;2023-03-01T06:45:16;22.73;;;15.55;;
16401;SDS011;8310;44.626;11.176;2023-03-01T06:47:46;17.40;;;14.18;;
16401;SDS011;8310;44.626;11.176;2023-03-01T06:50:15;18.70;;;15.63;;
16401;SDS011;8310;44.626;11.176;2023-03-01T06:52:43;17.63;;;14.55;;
16401;SDS011;8310;44.626;11.176;2023-03-01T06:55:12;19.30;;;16.20;;
16401;SDS011;8310;44.626;11.176;2023-03-01T06:57:41;21.30;;;15.40;;
16401;SDS011;8310;44.626;11.176;2023-03-01T07:00:12;19.90;;;15.70;;
16401;SDS011;8310;44.626;11.176;2023-03-01T07:02:40;18.95;;;16.00;;
16401;SDS011;8310;44.626;11.176;2023-03-01T07:05:08;21.00;;;14.85;;
16401;SDS011;8310;44.626;11.176;2023-03-01T07:07:35;18.63;;;14.35;;
16401;SDS011;8310;44.626;11.176;2023-03-01T07:10:03;18.63;;;15.95;;
16401;SDS011;8310;44.626;11.176;2023-03-01T07:12:32;20.75;;;16.08;;
16401;SDS011;8310;44.626;11.176;2023-03-01T07:15:00;18.85;;;15.68;;
16401;SDS011;8310;44.626;11.176;2023-03-01T07:17:29;19.50;;;15.35;;
16401;SDS011;8310;44.626;11.176;2023-03-01T07:19:57;20.40;;;15.57;;
16401;SDS011;8310;44.626;11.176;2023-03-01T07:22:25;20.48;;;17.17;;
16401;SDS011;8310;44.626;11.176;2023-03-01T07:24:53;20.70;;;15.57;;
16401;SDS011;8310;44.626;11.176;2023-03-01T07:27:20;20.48;;;16.02;;
16401;SDS011;8310;44.626;11.176;2023-03-01T07:29:48;19.55;;;16.65;;
16401;SDS011;8310;44.626;11.176;2023-03-01T07:32:16;18.52;;;16.52;;
16401;SDS011;8310;44.626;11.176;2023-03-01T07:34:45;22.20;;;15.52;;
16401;SDS011;8310;44.626;11.176;2023-03-01T07:37:12;18.98;;;15.45;;
16401;SDS011;8310;44.626;11.176;2023-03-01T07:39:41;21.48;;;16.92;;
16401;SDS011;8310;44.626;11.176;2023-03-01T07:42:09;19.45;;;16.00;;
16401;SDS011;8310;44.626;11.176;2023-03-01T07:44:37;21.88;;;16.23;;
16401;SDS011;8310;44.626;11.176;2023-03-01T07:47:04;21.15;;;16.17;;
16401;SDS011;8310;44.626;11.176;2023-03-01T07:49:33;20.38;;;15.52;;
16401;SDS011;8310;44.626;11.176;2023-03-01T07:52:03;17.77;;;15.27;;
16401;SDS011;8310;44.626;11.176;2023-03-01T07:54:31;25.05;;;16.75;;
16401;SDS011;8310;44.626;11.176;2023-03-01T07:56:59;18.20;;;14.45;;
16401;SDS011;8310;44.626;11.176;2023-03-01T07:59:27;19.50;;;15.73;;
16401;SDS011;8310;44.626;11.176;2023-03-01T08:01:54;19.70;;;15.52;;
16401;SDS011;8310;44.626;11.176;2023-03-01T08:04:23;20.67;;;16.30;;
16401;SDS011;8310;44.626;11.176;2023-03-01T08:06:51;20.17;;;16.38;;
16401;SDS011;8310;44.626;11.176;2023-03-01T08:09:21;23.00;;;16.85;;
16401;SDS011;8310;44.626;11.176;2023-03-01T08:11:49;21.58;;;16.77;;
16401;SDS011;8310;44.626;11.176;2023-03-01T08:14:17;18.95;;;16.08;;
16401;SDS011;8310;44.626;11.176;2023-03-01T08:19:49;21.88;;;16.48;;
16401;SDS011;8310;44.626;11.176;2023-03-01T08:22:17;21.48;;;17.27;;
16401;SDS011;8310;44.626;11.176;2023-03-01T08:24:46;22.25;;;19.90;;
16401;SDS011;8310;44.626;11.176;2023-03-01T08:27:14;22.63;;;18.27;;
16401;SDS011;8310;44.626;11.176;2023-03-01T08:29:42;22.58;;;18.52;;
16401;SDS011;8310;44.626;11.176;2023-03-01T08:32:10;21.63;;;19.02;;
16401;SDS011;8310;44.626;11.176;2023-03-01T08:34:38;25.17;;;21.15;;
16401;SDS011;8310;44.626;11.176;2023-03-01T08:37:05;25.85;;;18.70;;
16401;SDS011;8310;44.626;11.176;2023-03-01T08:39:33;26.70;;;22.10;;
16401;SDS011;8310;44.626;11.176;2023-03-01T08:42:02;25.33;;;21.63;;
16401;SDS011;8310;44.626;11.176;2023-03-01T08:44:30;23.85;;;20.80;;
16401;SDS011;8310;44.626;11.176;2023-03-01T08:46:58;25.42;;;22.75;;
16401;SDS011;8310;44.626;11.176;2023-03-01T08:49:27;24.10;;;21.58;;
16401;SDS011;8310;44.626;11.176;2023-03-01T08:51:55;26.20;;;23.38;;
16401;SDS011;8310;44.626;11.176;2023-03-01T08:54:25;28.73;;;23.48;;
16401;SDS011;8310;44.626;11.176;2023-03-01T08:56:53;26.50;;;23.05;;
16401;SDS011;8310;44.626;11.176;2023-03-01T08:59:22;26.42;;;23.67;;
16401;SDS011;8310;44.626;11.176;2023-03-01T09:01:49;30.48;;;24.50;;
16401;SDS011;8310;44.626;11.176;2023-03-01T09:04:17;28.70;;;25.55;;
16401;SDS011;8310;44.626;11.176;2023-03-01T09:06:45;29.42;;;26.23;;
16401;SDS011;8310;44.626;11.176;2023-03-01T09:09:13;31.33;;;26.83;;
16401;SDS011;8310;44.626;11.176;2023-03-01T09:11:42;29.33;;;25.35;;
16401;SDS011;8310;44.626;11.176;2023-03-01T09:14:11;29.73;;;26.52;;
16401;SDS011;8310;44.626;11.176;2023-03-01T09:16:40;29.65;;;25.83;;
16401;SDS011;8310;44.626;11.176;2023-03-01T09:19:08;31.50;;;24.38;;
16401;SDS011;8310;44.626;11.176;2023-03-01T09:21:36;34.65;;;28.45;;
16401;SDS011;8310;44.626;11.176;2023-03-01T09:24:05;32.28;;;28.90;;
16401;SDS011;8310;44.626;11.176;2023-03-01T09:26:33;34.88;;;29.30;;
16401;SDS011;8310;44.626;11.176;2023-03-01T09:29:01;35.25;;;29.95;;
16401;SDS011;8310;44.626;11.176;2023-03-01T09:31:28;34.60;;;29.95;;
16401;SDS011;8310;44.626;11.176;2023-03-01T09:33:58;31.42;;;28.00;;
16401;SDS011;8310;44.626;11.176;2023-03-01T09:36:26;32.97;;;27.80;;
16401;SDS011;8310;44.626;11.176;2023-03-01T09:39:00;36.92;;;29.83;;
16401;SDS011;8310;44.626;11.176;2023-03-01T09:41:35;37.50;;;29.08;;
16401;SDS011;8310;44.626;11.176;2023-03-01T09:44:12;33.15;;;29.42;;
16401;SDS011;8310;44.626;11.176;2023-03-01T09:46:47;37.10;;;33.10;;
16401;SDS011;8310;44.626;11.176;2023-03-01T09:49:18;34.30;;;28.30;;
16401;SDS011;8310;44.626;11.176;2023-03-01T09:51:50;34.35;;;29.15;;
16401;SDS011;8310;44.626;11.176;2023-03-01T09:54:23;32.78;;;28.13;;
16401;SDS011;8310;44.626;11.176;2023-03-01T09:56:59;33.85;;;26.92;;
16401;SDS011;8310;44.626;11.176;2023-03-01T09:59:40;31.33;;;26.33;;
16401;SDS011;8310;44.626;11.176;2023-03-01T10:02:27;29.67;;;25.00;;
16401;SDS011;8310;44.626;11.176;2023-03-01T10:05:05;29.95;;;26.13;;
16401;SDS011;8310;44.626;11.176;2023-03-01T10:07:54;29.80;;;26.55;;
16401;SDS011;8310;44.626;11.176;2023-03-01T10:10:32;28.70;;;25.63;;
16401;SDS011;8310;44.626;11.176;2023-03-01T10:13:02;30.17;;;27.13;;
16401;SDS011;8310;44.626;11.176;2023-03-01T10:15:38;28.50;;;25.58;;
16401;SDS011;8310;44.626;11.176;2023-03-01T10:18:10;28.50;;;24.75;;
16401;SDS011;8310;44.626;11.176;2023-03-01T10:20:46;28.95;;;25.27;;
16401;SDS011;8310;44.626;11.176;2023-03-01T10:23:18;31.95;;;26.60;;
16401;SDS011;8310;44.626;11.176;2023-03-01T10:25:48;29.10;;;24.67;;
16401;SDS011;8310;44.626;11.176;2023-03-01T10:28:25;28.42;;;22.80;;
16401;SDS011;8310;44.626;11.176;2023-03-01T10:30:57;25.98;;;18.45;;
16401;SDS011;8310;44.626;11.176;2023-03-01T10:33:26;24.95;;;18.98;;
16401;SDS011;8310;44.626;11.176;2023-03-01T10:35:57;25.98;;;18.95;;
16401;SDS011;8310;44.626;11.176;2023-03-01T10:38:25;26.70;;;20.98;;
16401;SDS011;8310;44.626;11.176;2023-03-01T10:40:55;25.25;;;20.52;;
16401;SDS011;8310;44.626;11.176;2023-03-01T10:43:24;27.65;;;19.52;;
16401;SDS011;8310;44.626;11.176;2023-03-01T10:45:53;26.17;;;21.88;;
16401;SDS011;8310;44.626;11.176;2023-03-01T10:48:21;29.98;;;20.60;;
16401;SDS011;8310;44.626;11.176;2023-03-01T10:51:03;25.15;;;20.42;;
16401;SDS011;8310;44.626;11.176;2023-03-01T10:53:34;30.15;;;24.17;;
16401;SDS011;8310;44.626;11.176;2023-03-01T10:56:05;29.15;;;22.67;;
16401;SDS011;8310;44.626;11.176;2023-03-01T10:58:35;29.90;;;25.38;;
16401;SDS011;8310;44.626;11.176;2023-03-01T11:01:05;28.42;;;22.52;;
16401;SDS011;8310;44.626;11.176;2023-03-01T11:04:03;28.15;;;25.05;;
16401;SDS011;8310;44.626;11.176;2023-03-01T11:06:39;29.85;;;24.73;;
16401;SDS011;8310;44.626;11.176;2023-03-01T11:09:14;26.33;;;22.65;;
16401;SDS011;8310;44.626;11.176;2023-03-01T11:11:43;25.98;;;21.95;;
16401;SDS011;8310;44.626;11.176;2023-03-01T11:14:13;27.05;;;21.45;;
16401;SDS011;8310;44.626;11.176;2023-03-01T11:16:44;27.85;;;22.92;;
16401;SDS011;8310;44.626;11.176;2023-03-01T11:19:15;26.45;;;20.17;;
16401;SDS011;8310;44.626;11.176;2023-03-01T11:21:50;23.20;;;18.75;;
16401;SDS011;8310;44.626;11.176;2023-03-01T11:24:24;26.75;;;20.42;;
16401;SDS011;8310;44.626;11.176;2023-03-01T11:26:57;21.23;;;18.38;;
16401;SDS011;8310;44.626;11.176;2023-03-01T11:29:30;23.98;;;19.70;;
16401;SDS011;8310;44.626;11.176;2023-03-01T11:32:04;24.42;;;20.08;;
16401;SDS011;8310;44.626;11.176;2023-03-01T11:34:39;24.77;;;20.75;;
16401;SDS011;8310;44.626;11.176;2023-03-01T11:37:14;25.13;;;20.05;;
16401;SDS011;8310;44.626;11.176;2023-03-01T11:39:52;26.40;;;19.45;;
16401;SDS011;8310;44.626;11.176;2023-03-01T11:42:28;29.42;;;19.90;;
16401;SDS011;8310;44.626;11.176;2023-03-01T11:45:06;24.40;;;19.05;;
16401;SDS011;8310;44.626;11.176;2023-03-01T11:50:28;25.95;;;17.63;;
16401;SDS011;8310;44.626;11.176;2023-03-01T11:53:09;25.80;;;21.73;;
16401;SDS011;8310;44.626;11.176;2023-03-01T11:55:53;22.08;;;17.83;;
16401;SDS011;8310;44.626;11.176;2023-03-01T11:58:51;24.88;;;19.05;;
16401;SDS011;8310;44.626;11.176;2023-03-01T12:01:32;25.30;;;18.25;;
16401;SDS011;8310;44.626;11.176;2023-03-01T12:04:14;24.38;;;18.27;;
16401;SDS011;8310;44.626;11.176;2023-03-01T12:07:15;25.50;;;19.05;;
16401;SDS011;8310;44.626;11.176;2023-03-01T12:12:47;21.90;;;16.05;;
16401;SDS011;8310;44.626;11.176;2023-03-01T12:18:37;22.50;;;17.02;;
16401;SDS011;8310;44.626;11.176;2023-03-01T12:21:25;23.13;;;15.27;;
16401;SDS011;8310;44.626;11.176;2023-03-01T12:24:10;22.80;;;15.88;;
16401;SDS011;8310;44.626;11.176;2023-03-01T12:27:00;22.88;;;15.55;;
16401;SDS011;8310;44.626;11.176;2023-03-01T12:29:38;24.50;;;17.40;;
16401;SDS011;8310;44.626;11.176;2023-03-01T12:35:13;26.50;;;16.60;;
16401;SDS011;8310;44.626;11.176;2023-03-01T12:38:10;21.52;;;17.00;;
16401;SDS011;8310;44.626;11.176;2023-03-01T12:41:01;20.38;;;15.98;;
16401;SDS011;8310;44.626;11.176;2023-03-01T12:43:46;24.08;;;17.45;;
16401;SDS011;8310;44.626;11.176;2023-03-01T12:46:27;23.95;;;16.95;;
16401;SDS011;8310;44.626;11.176;2023-03-01T12:49:08;20.05;;;15.15;;
16401;SDS011;8310;44.626;11.176;2023-03-01T12:51:38;25.10;;;18.10;;
16401;SDS011;8310;44.626;11.176;2023-03-01T12:59:09;24.30;;;19.60;;
16401;SDS011;8310;44.626;11.176;2023-03-01T13:01:42;23.00;;;17.70;;
16401;SDS011;8310;44.626;11.176;2023-03-01T13:04:20;26.23;;;19.10;;
16401;SDS011;8310;44.626;11.176;2023-03-01T13:07:02;24.60;;;19.45;;
16401;SDS011;8310;44.626;11.176;2023-03-01T13:09:38;23.38;;;16.90;;
16401;SDS011;8310;44.626;11.176;2023-03-01T13:15:31;23.00;;;17.92;;
16401;SDS011;8310;44.626;11.176;2023-03-01T13:18:00;25.40;;;17.77;;
16401;SDS011;8310;44.626;11.176;2023-03-01T13:20:30;23.92;;;18.50;;
16401;SDS011;8310;44.626;11.176;2023-03-01T13:23:01;23.30;;;18.33;;
16401;SDS011;8310;44.626;11.176;2023-03-01T13:28:38;24.02;;;18.15;;
16401;SDS011;8310;44.626;11.176;2023-03-01T13:31:08;26.75;;;18.48;;
16401;SDS011;8310;44.626;11.176;2023-03-01T13:33:40;29.63;;;21.10;;
16401;SDS011;8310;44.626;11.176;2023-03-01T13:36:10;26.25;;;19.95;;
16401;SDS011;8310;44.626;11.176;2023-03-01T13:39:02;27.33;;;19.33;;
16401;SDS011;8310;44.626;11.176;2023-03-01T13:41:49;23.92;;;19.15;;
16401;SDS011;8310;44.626;11.176;2023-03-01T13:44:20;25.88;;;19.20;;
16401;SDS011;8310;44.626;11.176;2023-03-01T13:46:55;24.80;;;18.75;;
16401;SDS011;8310;44.626;11.176;2023-03-01T13:49:26;26.25;;;19.40;;
16401;SDS011;8310;44.626;11.176;2023-03-01T13:51:55;27.50;;;21.00;;
16401;SDS011;8310;44.626;11.176;2023-03-01T13:54:25;25.73;;;20.75;;
16401;SDS011;8310;44.626;11.176;2023-03-01T13:56:57;28.23;;;22.10;;
16401;SDS011;8310;44.626;11.176;2023-03-01T13:59:27;28.35;;;22.33;;
16401;SDS011;8310;44.626;11.176;2023-03-01T14:02:00;29.73;;;24.23;;
16401;SDS011;8310;44.626;11.176;2023-03-01T14:04:28;29.10;;;20.08;;
16401;SDS011;8310;44.626;11.176;2023-03-01T14:07:10;29.00;;;22.45;;
16401;SDS011;8310;44.626;11.176;2023-03-01T14:09:39;31.58;;;22.38;;
16401;SDS011;8310;44.626;11.176;2023-03-01T14:15:02;28.48;;;21.88;;
16401;SDS011;8310;44.626;11.176;2023-03-01T14:17:52;31.55;;;23.90;;
16401;SDS011;8310;44.626;11.176;2023-03-01T14:20:26;29.73;;;24.80;;
16401;SDS011;8310;44.626;11.176;2023-03-01T14:22:57;32.72;;;25.27;;
16401;SDS011;8310;44.626;11.176;2023-03-01T14:25:28;30.20;;;22.30;;
16401;SDS011;8310;44.626;11.176;2023-03-01T14:28:03;29.98;;;21.90;;
16401;SDS011;8310;44.626;11.176;2023-03-01T14:30:41;28.23;;;21.83;;
16401;SDS011;8310;44.626;11.176;2023-03-01T14:33:19;26.42;;;20.88;;
16401;SDS011;8310;44.626;11.176;2023-03-01T14:35:52;28.90;;;24.27;;
16401;SDS011;8310;44.626;11.176;2023-03-01T14:38:23;30.02;;;22.80;;
16401;SDS011;8310;44.626;11.176;2023-03-01T14:40:57;27.25;;;21.95;;
16401;SDS011;8310;44.626;11.176;2023-03-01T14:43:31;26.98;;;20.95;;
16401;SDS011;8310;44.626;11.176;2023-03-01T14:46:00;25.30;;;21.98;;
16401;SDS011;8310;44.626;11.176;2023-03-01T14:48:29;27.60;;;22.45;;
16401;SDS011;8310;44.626;11.176;2023-03-01T14:50:58;26.60;;;22.88;;
16401;SDS011;8310;44.626;11.176;2023-03-01T14:53:26;27.20;;;22.70;;
16401;SDS011;8310;44.626;11.176;2023-03-01T14:55:56;27.27;;;21.48;;
16401;SDS011;8310;44.626;11.176;2023-03-01T14:58:28;28.80;;;25.20;;
16401;SDS011;8310;44.626;11.176;2023-03-01T15:00:58;30.50;;;23.38;;
16401;SDS011;8310;44.626;11.176;2023-03-01T15:03:31;32.20;;;26.50;;
16401;SDS011;8310;44.626;11.176;2023-03-01T15:06:02;33.28;;;23.30;;
16401;SDS011;8310;44.626;11.176;2023-03-01T15:08:32;26.55;;;20.75;;
16401;SDS011;8310;44.626;11.176;2023-03-01T15:11:02;26.05;;;21.67;;
16401;SDS011;8310;44.626;11.176;2023-03-01T15:13:40;27.42;;;21.80;;
16401;SDS011;8310;44.626;11.176;2023-03-01T15:16:09;30.10;;;22.95;;
16401;SDS011;8310;44.626;11.176;2023-03-01T15:18:44;27.65;;;22.52;;
16401;SDS011;8310;44.626;11.176;2023-03-01T15:21:16;29.27;;;23.13;;
16401;SDS011;8310;44.626;11.176;2023-03-01T15:23:48;30.00;;;24.27;;
16401;SDS011;8310;44.626;11.176;2023-03-01T15:26:22;31.42;;;24.90;;
16401;SDS011;8310;44.626;11.176;2023-03-01T15:28:52;31.50;;;25.30;;
16401;SDS011;8310;44.626;11.176;2023-03-01T15:31:23;33.38;;;26.23;;
16401;SDS011;8310;44.626;11.176;2023-03-01T15:33:58;30.73;;;23.67;;
16401;SDS011;8310;44.626;11.176;2023-03-01T15:36:42;28.33;;;24.50;;
16401;SDS011;8310;44.626;11.176;2023-03-01T15:39:31;30.23;;;26.58;;
16401;SDS011;8310;44.626;11.176;2023-03-01T15:42:02;30.58;;;25.00;;
16401;SDS011;8310;44.626;11.176;2023-03-01T15:44:32;29.60;;;24.63;;
16401;SDS011;8310;44.626;11.176;2023-03-01T15:47:01;29.85;;;23.45;;